createdAt,value
2023-04-22T00:01:31.072Z,100080.88
2023-04-22T00:03:57.776Z,100080.75
2023-04-22T00:06:24.419Z,100076.97
2023-04-22T00:08:50.949Z,100074.22
2023-04-22T00:11:17.389Z,100068.88
2023-04-22T00:13:44.465Z,100071.38
2023-04-22T00:16:11.198Z,100072.25
2023-04-22T00:18:37.771Z,100070.50
2023-04-22T00:21:06.197Z,100066.28
2023-04-22T00:23:32.702Z,100063.91
2023-04-22T00:25:59.732Z,100068.19
2023-04-22T00:28:26.184Z,100067.34
2023-04-22T00:30:52.634Z,100066.28
2023-04-22T00:33:19.178Z,100060.28
2023-04-22T00:35:48.704Z,100054.22
2023-04-22T00:38:15.142Z,100060.25
2023-04-22T00:40:41.762Z,100054.22
2023-04-22T00:43:09.003Z,100053.34
2023-04-22T00:45:37.275Z,100051.75
2023-04-22T00:48:03.977Z,100057.13
2023-04-22T00:50:30.668Z,100055.41
2023-04-22T00:52:57.114Z,100061.59
2023-04-22T00:55:23.778Z,100057.19
2023-04-22T00:57:52.002Z,100057.16
2023-04-22T01:00:20.216Z,100054.56
2023-04-22T01:02:47.813Z,100053.88
2023-04-22T01:05:14.412Z,100052.97
2023-04-22T01:07:40.832Z,100049.38
2023-04-22T01:10:07.810Z,100050.13
2023-04-22T01:12:34.703Z,100047.50
2023-04-22T01:15:04.323Z,100048.47
2023-04-22T01:17:33.637Z,100048.47
2023-04-22T01:20:00.709Z,100049.78
2023-04-22T01:22:33.490Z,100051.53
2023-04-22T01:24:59.988Z,100053.22
2023-04-22T01:27:26.696Z,100055.78
2023-04-22T01:29:53.285Z,100054.94
2023-04-22T01:32:20.010Z,100051.47
2023-04-22T01:34:46.619Z,100054.94
2023-04-22T01:37:13.091Z,100051.66
2023-04-22T01:39:40.265Z,100062.13
2023-04-22T01:42:07.021Z,100059.41
2023-04-22T01:44:33.509Z,100061.25
2023-04-22T01:47:00.122Z,100062.06
2023-04-22T01:49:26.604Z,100056.13
2023-04-22T01:51:53.068Z,100055.22
2023-04-22T01:54:19.514Z,100053.31
2023-04-22T01:56:51.511Z,100058.69
2023-04-22T01:59:17.957Z,100054.31
2023-04-22T02:01:44.434Z,100056.03
2023-04-22T02:04:10.889Z,100056.88
2023-04-22T02:06:37.999Z,100053.47
2023-04-22T02:09:04.745Z,100063.06
2023-04-22T02:11:31.221Z,100060.16
2023-04-22T02:13:57.659Z,100052.19
2023-04-22T02:16:24.228Z,100046.09
2023-04-22T02:18:50.784Z,100046.06
2023-04-22T02:21:17.214Z,100049.81
2023-04-22T02:23:43.765Z,100046.31
2023-04-22T02:26:10.795Z,100044.78
2023-04-22T02:28:37.290Z,100044.72
2023-04-22T02:31:03.772Z,100040.41
2023-04-22T02:33:30.434Z,100037.69
2023-04-22T02:35:56.898Z,100039.50
2023-04-22T02:38:24.051Z,100036.94
2023-04-22T02:40:50.532Z,100034.28
2023-04-22T02:43:16.999Z,100034.47
2023-04-22T02:45:43.502Z,100029.34
2023-04-22T02:48:10.162Z,100033.59
2023-04-22T02:50:36.793Z,100025.69
2023-04-22T02:53:03.381Z,100024.59
2023-04-22T02:55:29.805Z,100018.41
2023-04-22T02:57:56.297Z,100013.03
2023-04-22T03:00:22.792Z,100012.13
2023-04-22T03:02:49.311Z,100011.31
2023-04-22T03:05:15.979Z,100015.13
2023-04-22T03:07:42.512Z,100008.44
2023-04-22T03:10:09.437Z,100003.16
2023-04-22T03:12:35.965Z,100000.50
2023-04-22T03:15:02.740Z,99996.94
2023-04-22T03:17:29.215Z,99990.75
2023-04-22T03:19:55.869Z,99997.75
2023-04-22T03:22:22.376Z,99990.75
2023-04-22T03:24:48.873Z,99993.31
2023-04-22T03:27:15.422Z,99989.75
2023-04-22T03:29:42.095Z,100000.28
2023-04-22T03:32:08.892Z,99990.69
2023-04-22T03:34:37.221Z,99986.22
2023-04-22T03:37:03.938Z,99989.69
2023-04-22T03:39:30.417Z,99979.34
2023-04-22T03:41:56.872Z,99970.59
2023-04-22T03:44:23.349Z,99970.75
2023-04-22T03:46:49.805Z,99963.06
2023-04-22T03:49:16.663Z,99971.78
2023-04-22T03:51:43.129Z,99969.13
2023-04-22T03:54:09.579Z,99974.28
2023-04-22T03:56:36.784Z,99963.88
2023-04-22T03:59:03.319Z,99966.44
2023-04-22T04:01:29.717Z,99968.00
2023-04-22T04:03:56.426Z,99966.06
2023-04-22T04:06:23.096Z,99966.78
2023-04-22T04:08:49.556Z,99961.50
2023-04-22T04:11:16.008Z,99961.34
2023-04-22T04:13:42.450Z,99962.19
2023-04-22T04:16:08.991Z,99953.44
2023-04-22T04:18:35.546Z,99949.97
2023-04-22T04:21:02.256Z,99949.97
2023-04-22T04:23:29.045Z,99943.00
2023-04-22T04:25:55.798Z,99935.16
2023-04-22T04:28:22.245Z,99939.41
2023-04-22T04:30:48.666Z,99933.16
2023-04-22T04:33:17.828Z,99928.69
2023-04-22T04:35:44.717Z,99932.97
2023-04-22T04:38:12.725Z,99927.63
2023-04-22T04:40:39.183Z,99933.66
2023-04-22T04:43:08.488Z,99927.44
2023-04-22T04:45:36.730Z,99926.44
2023-04-22T04:48:03.376Z,99941.09
2023-04-22T04:50:30.336Z,99934.91
2023-04-22T04:52:56.769Z,99940.06
2023-04-22T04:55:23.270Z,99939.16
2023-04-22T04:57:49.800Z,99936.50
2023-04-22T05:00:16.494Z,99933.75
2023-04-22T05:02:43.028Z,99922.38
2023-04-22T05:05:10.276Z,99927.44
2023-04-22T05:07:36.833Z,99915.94
2023-04-22T05:10:03.810Z,99916.75
2023-04-22T05:12:30.320Z,99917.50
2023-04-22T05:14:56.779Z,99912.13
2023-04-22T05:17:23.325Z,99917.19
2023-04-22T05:19:49.863Z,99929.31
2023-04-22T05:22:17.891Z,99920.38
2023-04-22T05:24:44.378Z,99925.47
2023-04-22T05:27:11.007Z,99926.22
2023-04-22T05:29:37.884Z,99929.50
2023-04-22T05:32:04.960Z,99936.28
2023-04-22T05:34:31.627Z,99933.41
2023-04-22T05:36:58.085Z,99931.53
2023-04-22T05:39:24.567Z,99940.94
2023-04-22T05:41:51.039Z,99939.06
2023-04-22T05:44:17.699Z,99939.88
2023-04-22T05:46:44.293Z,99942.41
2023-04-22T05:49:10.720Z,99937.97
2023-04-22T05:51:37.198Z,99944.13
2023-04-22T05:54:03.861Z,99942.28
2023-04-22T05:56:30.548Z,99944.06
2023-04-22T05:58:56.996Z,99945.75
2023-04-22T06:01:24.828Z,99940.59
2023-04-22T06:03:51.639Z,99948.50
2023-04-22T06:06:18.486Z,99947.66
2023-04-22T06:08:44.974Z,99951.97
2023-04-22T06:11:11.429Z,99948.44
2023-04-22T06:13:37.990Z,99954.47
2023-04-22T06:16:05.277Z,99944.84
2023-04-22T06:18:32.642Z,99944.84
2023-04-22T06:20:59.146Z,99951.00
2023-04-22T06:23:25.602Z,99940.47
2023-04-22T06:25:52.247Z,99943.09
2023-04-22T06:28:18.675Z,99944.00
2023-04-22T06:30:45.093Z,99936.19
2023-04-22T06:33:11.636Z,99934.44
2023-04-22T06:35:38.169Z,99930.00
2023-04-22T06:38:04.679Z,99931.63
2023-04-22T06:40:31.158Z,99926.31
2023-04-22T06:42:57.653Z,99921.00
2023-04-22T06:45:24.585Z,99924.41
2023-04-22T06:47:54.081Z,99928.50
2023-04-22T06:50:21.136Z,99930.78
2023-04-22T06:52:47.822Z,99928.56
2023-04-22T06:55:14.418Z,99927.38
2023-04-22T06:57:40.853Z,99926.91
2023-04-22T07:00:08.662Z,99930.91
2023-04-22T07:02:35.469Z,99924.16
2023-04-22T07:05:02.281Z,99936.09
2023-04-22T07:07:29.054Z,99927.97
2023-04-22T07:09:55.534Z,99922.53
2023-04-22T07:12:22.040Z,99923.59
2023-04-22T07:14:49.584Z,99933.28
2023-04-22T07:17:19.259Z,99929.06
2023-04-22T07:19:45.704Z,99926.22
2023-04-22T07:22:12.226Z,99919.66
2023-04-22T07:24:39.776Z,99923.09
2023-04-22T07:27:06.578Z,99922.28
2023-04-22T07:29:33.107Z,99927.59
2023-04-22T07:31:59.638Z,99927.84
2023-04-22T07:34:26.174Z,99916.84
2023-04-22T07:36:53.491Z,99916.56
2023-04-22T07:39:20.053Z,99911.97
2023-04-22T07:41:46.498Z,99907.69
2023-04-22T07:44:16.398Z,99904.47
2023-04-22T07:46:43.325Z,99908.38
2023-04-22T07:49:09.908Z,99906.44
2023-04-22T07:51:36.563Z,99904.84
2023-04-22T07:54:03.077Z,99914.91
2023-04-22T07:56:29.491Z,99902.06
2023-04-22T07:58:55.889Z,99903.19
2023-04-22T08:01:22.446Z,99900.44
2023-04-22T08:03:49.090Z,99882.09
2023-04-22T08:06:15.930Z,99884.03
2023-04-22T08:08:42.388Z,99879.63
2023-04-22T08:11:08.902Z,99897.69
2023-04-22T08:13:35.476Z,99893.84
2023-04-22T08:16:04.794Z,99889.09
2023-04-22T08:18:31.372Z,99874.16
2023-04-22T08:20:57.859Z,99873.22
2023-04-22T08:23:25.585Z,99882.47
2023-04-22T08:25:52.187Z,99886.47
2023-04-22T08:28:18.710Z,99878.69
2023-04-22T08:30:45.186Z,99881.94
2023-04-22T08:33:12.110Z,99871.13
2023-04-22T08:35:38.700Z,99855.66
2023-04-22T08:38:05.351Z,99860.09
2023-04-22T08:40:31.865Z,99862.66
2023-04-22T08:42:58.433Z,99867.94
2023-04-22T08:45:25.165Z,99868.03
2023-04-22T08:47:53.626Z,99862.06
2023-04-22T08:50:22.333Z,99856.72
2023-04-22T08:52:49.169Z,99854.84
2023-04-22T08:55:15.587Z,99849.66
2023-04-22T08:57:42.368Z,99853.28
2023-04-22T09:00:09.781Z,99851.53
2023-04-22T09:02:38.778Z,99850.59
2023-04-22T09:05:07.095Z,99841.56
2023-04-22T09:07:33.556Z,99847.38
2023-04-22T09:09:59.997Z,99838.31
2023-04-22T09:12:26.566Z,99843.81
2023-04-22T09:14:54.465Z,99842.56
2023-04-22T09:17:35.303Z,99833.41
2023-04-22T09:20:03.284Z,99830.41
2023-04-22T09:22:38.771Z,99826.97
2023-04-22T09:25:05.627Z,99819.28
2023-04-22T09:27:33.962Z,99827.50
2023-04-22T09:30:00.483Z,99824.75
2023-04-22T09:32:26.954Z,99823.88
2023-04-22T09:34:54.772Z,99829.38
2023-04-22T09:37:28.976Z,99822.38
2023-04-22T09:40:04.194Z,99822.78
2023-04-22T09:42:30.724Z,99839.69
2023-04-22T09:45:00.012Z,99827.31
2023-04-22T09:47:35.910Z,99827.06
2023-04-22T09:50:04.424Z,99830.06
2023-04-22T09:52:32.964Z,99816.91
2023-04-22T09:54:59.394Z,99824.34
2023-04-22T09:57:27.651Z,99823.66
2023-04-22T09:59:56.087Z,99822.16
2023-04-22T10:02:29.910Z,99820.56
2023-04-22T10:04:58.331Z,99819.81
2023-04-22T10:07:24.978Z,99822.00
2023-04-22T10:09:51.736Z,99816.13
2023-04-22T10:12:26.205Z,99817.38
2023-04-22T10:14:59.575Z,99804.50
2023-04-22T10:17:28.250Z,99799.72
2023-04-22T10:19:56.349Z,99797.66
2023-04-22T10:22:23.018Z,99804.66
2023-04-22T10:24:50.268Z,99807.31
2023-04-22T10:27:22.145Z,99813.34
2023-04-22T10:29:48.647Z,99819.38
2023-04-22T10:32:18.216Z,99814.41
2023-04-22T10:34:47.248Z,99808.75
2023-04-22T10:37:18.024Z,99816.09
2023-04-22T10:40:08.010Z,99821.31
2023-04-22T10:42:34.939Z,99802.41
2023-04-22T10:45:04.072Z,99819.41
2023-04-22T10:47:33.177Z,99825.19
2023-04-22T10:50:18.737Z,99828.13
2023-04-22T10:52:51.597Z,99819.16
2023-04-22T10:55:19.099Z,99821.50
2023-04-22T10:57:48.518Z,99815.16
2023-04-22T11:00:24.032Z,99826.31
2023-04-22T11:03:08.983Z,99806.19
2023-04-22T11:05:35.825Z,99817.44
2023-04-22T11:08:06.632Z,99821.59
2023-04-22T11:13:09.776Z,99824.38
2023-04-22T11:15:38.485Z,99823.88
2023-04-22T11:18:10.886Z,99830.69
2023-04-22T11:20:37.557Z,99824.44
2023-04-22T11:23:04.613Z,99830.28
2023-04-22T11:25:31.589Z,99836.41
2023-04-22T11:27:58.766Z,99832.44
2023-04-22T11:30:26.856Z,99830.22
2023-04-22T11:32:59.664Z,99827.25
2023-04-22T11:35:33.544Z,99828.09
2023-04-22T11:38:08.593Z,99827.50
2023-04-22T11:40:39.039Z,99819.91
2023-04-22T11:43:08.645Z,99835.81
2023-04-22T11:45:36.723Z,99822.09
2023-04-22T11:48:06.736Z,99824.13
2023-04-22T11:50:35.705Z,99818.91
2023-04-22T11:53:02.914Z,99824.25
2023-04-22T11:55:33.950Z,99814.34
2023-04-22T11:58:27.594Z,99815.88
2023-04-22T12:00:55.183Z,99807.47
2023-04-22T12:03:27.293Z,99815.91
2023-04-22T12:05:57.286Z,99809.13
2023-04-22T12:08:33.594Z,99803.47
2023-04-22T12:11:03.766Z,99805.50
2023-04-22T12:13:43.081Z,99807.84
2023-04-22T12:16:14.813Z,99809.34
2023-04-22T12:18:52.138Z,99820.16
2023-04-22T12:21:28.173Z,99802.88
2023-04-22T12:23:58.997Z,99809.78
2023-04-22T12:26:27.353Z,99818.38
2023-04-22T12:28:56.769Z,99816.41
2023-04-22T12:31:23.616Z,99812.06
2023-04-22T12:33:50.365Z,99812.16
2023-04-22T12:36:19.154Z,99818.16
2023-04-22T12:38:45.626Z,99827.88
2023-04-22T12:41:12.340Z,99811.25
2023-04-22T12:43:39.449Z,99822.13
2023-04-22T12:46:07.767Z,99822.16
2023-04-22T12:48:37.212Z,99823.97
2023-04-22T12:51:04.937Z,99827.50
2023-04-22T12:53:31.459Z,99814.63
2023-04-22T12:55:58.440Z,99827.66
2023-04-22T12:58:26.109Z,99822.97
2023-04-22T13:00:52.627Z,99827.38
2023-04-22T13:03:19.292Z,99820.56
2023-04-22T13:05:46.065Z,99817.09
2023-04-22T13:08:12.547Z,99815.25
2023-04-22T13:10:39.071Z,99818.44
2023-04-22T13:13:17.793Z,99820.72
2023-04-22T13:15:46.993Z,99818.59
2023-04-22T13:18:14.937Z,99817.28
2023-04-22T13:20:42.368Z,99819.88
2023-04-22T13:23:09.671Z,99823.34
2023-04-22T13:25:36.743Z,99826.25
2023-04-22T13:28:03.173Z,99821.44
2023-04-22T13:30:29.616Z,99827.16
2023-04-22T13:32:56.142Z,99840.94
2023-04-22T13:35:22.640Z,99841.34
2023-04-22T13:37:49.068Z,99839.44
2023-04-22T13:40:15.508Z,99848.28
2023-04-22T13:42:42.774Z,99843.31
2023-04-22T13:45:09.787Z,99842.06
2023-04-22T13:47:36.490Z,99849.50
2023-04-22T13:50:03.316Z,99854.63
2023-04-22T13:52:29.773Z,99856.81
2023-04-22T13:54:56.239Z,99863.53
2023-04-22T13:57:23.283Z,99839.47
2023-04-22T13:59:50.495Z,99858.75
2023-04-22T14:02:17.026Z,99850.44
2023-04-22T14:04:43.505Z,99851.38
2023-04-22T14:07:10.095Z,99850.44
2023-04-22T14:09:36.595Z,99838.91
2023-04-22T14:12:04.676Z,99848.63
2023-04-22T14:14:31.206Z,99836.34
2023-04-22T14:16:58.392Z,99842.69
2023-04-22T14:19:26.071Z,99846.28
2023-04-22T14:21:52.549Z,99846.28
2023-04-22T14:24:19.569Z,99841.84
2023-04-22T14:26:46.170Z,99839.09
2023-04-22T14:29:13.984Z,99847.88
2023-04-22T14:31:40.658Z,99848.84
2023-04-22T14:34:07.178Z,99841.84
2023-04-22T14:36:33.741Z,99847.31
2023-04-22T14:39:00.231Z,99838.63
2023-04-22T14:41:27.081Z,99852.13
2023-04-22T14:43:53.522Z,99845.31
2023-04-22T14:46:20.120Z,99841.91
2023-04-22T14:48:46.620Z,99852.50
2023-04-22T14:51:13.201Z,99850.81
2023-04-22T14:53:40.797Z,99848.31
2023-04-22T14:56:08.055Z,99842.13
2023-04-22T14:58:34.515Z,99850.22
2023-04-22T15:01:01.138Z,99836.22
2023-04-22T15:03:27.931Z,99840.78
2023-04-22T15:05:55.594Z,99838.03
2023-04-22T15:08:22.355Z,99849.47
2023-04-22T15:10:48.841Z,99847.75
2023-04-22T15:13:15.366Z,99847.94
2023-04-22T15:15:41.915Z,99846.31
2023-04-22T15:18:08.929Z,99847.16
2023-04-22T15:20:35.717Z,99849.06
2023-04-22T15:23:02.251Z,99854.56
2023-04-22T15:25:28.915Z,99848.47
2023-04-22T15:27:56.857Z,99850.56
2023-04-22T15:30:24.319Z,99857.75
2023-04-22T15:32:50.849Z,99866.69
2023-04-22T15:35:17.413Z,99861.69
2023-04-22T15:37:44.945Z,99852.41
2023-04-22T15:40:11.844Z,99863.16
2023-04-22T15:42:38.383Z,99862.47
2023-04-22T15:45:05.805Z,99852.09
2023-04-22T15:47:33.395Z,99851.34
2023-04-22T15:50:06.274Z,99849.59
2023-04-22T15:52:33.492Z,99846.25
2023-04-22T15:55:01.635Z,99841.16
2023-04-22T15:57:28.550Z,99846.59
2023-04-22T16:00:06.770Z,99842.34
2023-04-22T16:02:37.392Z,99844.34
2023-04-22T16:05:04.201Z,99844.59
2023-04-22T16:07:31.592Z,99842.22
2023-04-22T16:09:58.135Z,99848.50
2023-04-22T16:12:24.738Z,99848.88
2023-04-22T16:14:51.315Z,99849.13
2023-04-22T16:17:17.936Z,99845.03
2023-04-22T16:19:44.605Z,99853.22
2023-04-22T16:22:11.251Z,99854.41
2023-04-22T16:24:37.683Z,99852.97
2023-04-22T16:27:04.136Z,99853.97
2023-04-22T16:29:30.838Z,99867.44
2023-04-22T16:31:57.310Z,99867.69
2023-04-22T16:34:23.849Z,99866.00
2023-04-22T16:36:50.975Z,99867.88
2023-04-22T16:39:19.043Z,99870.75
2023-04-22T16:41:45.765Z,99880.88
2023-04-22T16:44:12.305Z,99874.06
2023-04-22T16:46:38.812Z,99872.53
2023-04-22T16:49:06.887Z,99874.47
2023-04-22T16:51:34.436Z,99878.50
2023-04-22T16:54:01.261Z,99873.31
2023-04-22T16:56:28.353Z,99877.75
2023-04-22T16:58:54.958Z,99888.06
2023-04-22T17:01:21.508Z,99877.59
2023-04-22T17:03:48.101Z,99872.09
2023-04-22T17:06:14.702Z,99877.50
2023-04-22T17:08:41.637Z,99878.44
2023-04-22T17:11:08.079Z,99885.34
2023-04-22T17:13:34.532Z,99885.44
2023-04-22T17:16:01.201Z,99877.44
2023-04-22T17:18:28.331Z,99882.88
2023-04-22T17:20:55.929Z,99880.56
2023-04-22T17:23:23.023Z,99887.78
2023-04-22T17:25:49.476Z,99884.28
2023-04-22T17:28:15.975Z,99879.97
2023-04-22T17:30:42.466Z,99882.69
2023-04-22T17:33:09.214Z,99882.81
2023-04-22T17:35:35.750Z,99884.69
2023-04-22T17:38:02.212Z,99889.28
2023-04-22T17:40:28.884Z,99891.06
2023-04-22T17:42:55.583Z,99889.31
2023-04-22T17:45:22.141Z,99881.50
2023-04-22T17:47:48.789Z,99883.47
2023-04-22T17:50:15.547Z,99887.03
2023-04-22T17:52:42.003Z,99893.28
2023-04-22T17:55:09.001Z,99890.72
2023-04-22T17:57:35.476Z,99888.25
2023-04-22T18:00:02.077Z,99886.78
2023-04-22T18:02:28.693Z,99890.22
2023-04-22T18:04:55.268Z,99887.59
2023-04-22T18:07:21.894Z,99889.50
2023-04-22T18:09:49.570Z,99895.72
2023-04-22T18:12:16.631Z,99896.72
2023-04-22T18:14:43.192Z,99891.44
2023-04-22T18:17:09.640Z,99893.22
2023-04-22T18:19:36.051Z,99892.38
2023-04-22T18:22:02.615Z,99889.75
2023-04-22T18:24:29.117Z,99896.72
2023-04-22T18:26:55.580Z,99896.63
2023-04-22T18:29:22.012Z,99890.53
2023-04-22T18:31:48.569Z,99899.50
2023-04-22T18:34:15.811Z,99892.59
2023-04-22T18:36:42.336Z,99894.38
2023-04-22T18:39:09.590Z,99895.41
2023-04-22T18:41:38.501Z,99893.63
2023-04-22T18:44:05.188Z,99886.69
2023-04-22T18:46:31.775Z,99903.44
2023-04-22T18:48:58.317Z,99897.41
2023-04-22T18:51:26.610Z,99899.09
2023-04-22T18:53:53.766Z,99907.16
2023-04-22T18:56:20.346Z,99909.81
2023-04-22T18:58:46.852Z,99910.09
2023-04-22T19:01:14.331Z,99911.09
2023-04-22T19:03:41.168Z,99913.03
2023-04-22T19:06:08.235Z,99915.72
2023-04-22T19:08:34.806Z,99913.19
2023-04-22T19:11:01.339Z,99918.53
2023-04-22T19:13:29.975Z,99919.31
2023-04-22T19:15:57.564Z,99917.59
2023-04-22T19:18:24.142Z,99913.19
2023-04-22T19:20:50.660Z,99914.19
2023-04-22T19:23:17.532Z,99919.53
2023-04-22T19:25:44.269Z,99940.91
2023-04-22T19:28:10.825Z,99955.97
2023-04-22T19:30:37.245Z,99963.00
2023-04-22T19:33:03.828Z,99968.44
2023-04-22T19:35:30.390Z,99964.41
2023-04-22T19:37:56.898Z,99974.13
2023-04-22T19:40:23.341Z,99969.25
2023-04-22T19:42:49.796Z,99971.78
2023-04-22T19:45:16.365Z,99983.63
2023-04-22T19:47:43.145Z,99973.28
2023-04-22T19:50:10.105Z,99973.22
2023-04-22T19:52:37.185Z,99969.81
2023-04-22T19:55:09.291Z,99977.03
2023-04-22T19:57:37.737Z,99979.53
2023-04-22T20:00:07.509Z,99977.00
2023-04-22T20:02:38.579Z,99985.38
2023-04-22T20:05:05.875Z,99985.97
2023-04-22T20:07:33.379Z,99992.25
2023-04-22T20:10:01.269Z,99994.72
2023-04-22T20:12:29.342Z,99988.59
2023-04-22T20:15:00.014Z,100001.34
2023-04-22T20:17:27.425Z,100002.13
2023-04-22T20:19:54.820Z,99995.16
2023-04-22T20:22:24.974Z,99996.34
2023-04-22T20:25:04.053Z,99994.56
2023-04-22T20:27:31.487Z,99988.41
2023-04-22T20:29:59.114Z,99989.44
2023-04-22T20:32:27.030Z,99988.66
2023-04-22T20:34:54.530Z,99986.81
2023-04-22T20:37:22.265Z,99987.81
2023-04-22T20:39:50.286Z,99992.84
2023-04-22T20:42:17.672Z,99990.50
2023-04-22T20:44:44.505Z,99997.63
2023-04-22T20:47:11.309Z,100005.59
2023-04-22T20:49:42.862Z,100004.00
2023-04-22T20:52:10.940Z,100006.75
2023-04-22T20:54:39.163Z,100006.81
2023-04-22T20:57:07.192Z,100014.00
2023-04-22T20:59:34.644Z,100014.88
2023-04-22T21:02:04.053Z,100016.97
2023-04-22T21:04:32.063Z,100027.13
2023-04-22T21:07:03.873Z,100021.31
2023-04-22T21:09:32.357Z,100029.53
2023-04-22T21:11:59.230Z,100031.47
2023-04-22T21:14:28.603Z,100032.31
2023-04-22T21:17:03.149Z,100033.25
2023-04-22T21:19:34.054Z,100037.53
2023-04-22T21:22:05.155Z,100045.84
2023-04-22T21:24:35.574Z,100041.53
2023-04-22T21:27:02.926Z,100043.44
2023-04-22T21:29:29.794Z,100049.00
2023-04-22T21:32:07.918Z,100042.78
2023-04-22T21:34:36.026Z,100050.44
2023-04-22T21:37:02.675Z,100045.84
2023-04-22T21:39:29.873Z,100045.22
2023-04-22T21:41:56.761Z,100048.75
2023-04-22T21:44:23.169Z,100051.56
2023-04-22T21:46:49.734Z,100054.28
2023-04-22T21:49:16.327Z,100053.88
2023-04-22T21:51:42.977Z,100053.22
2023-04-22T21:54:09.462Z,100048.94
2023-04-22T21:56:35.999Z,100051.41
2023-04-22T21:59:02.547Z,100045.03
2023-04-22T22:01:29.073Z,100048.41
2023-04-22T22:03:55.744Z,100045.94
2023-04-22T22:06:22.386Z,100050.59
2023-04-22T22:08:48.906Z,100053.22
2023-04-22T22:11:27.481Z,100051.56
2023-04-22T22:13:56.717Z,100048.84
2023-04-22T22:16:23.382Z,100045.41
2023-04-22T22:18:50.593Z,100051.84
2023-04-22T22:21:17.284Z,100051.78
2023-04-22T22:23:43.749Z,100060.56
2023-04-22T22:26:10.235Z,100060.56
2023-04-22T22:28:36.815Z,100070.31
2023-04-22T22:31:03.292Z,100073.97
2023-04-22T22:33:29.995Z,100065.34
2023-04-22T22:35:56.919Z,100070.53
2023-04-22T22:38:23.401Z,100065.31
2023-04-22T22:40:49.817Z,100071.47
2023-04-22T22:43:16.370Z,100068.06
2023-04-22T22:45:43.013Z,100070.75
2023-04-22T22:48:09.734Z,100067.31
2023-04-22T22:50:36.330Z,100077.03
2023-04-22T22:53:02.802Z,100085.06
2023-04-22T22:55:29.256Z,100081.53
2023-04-22T22:57:55.713Z,100083.44
2023-04-22T23:00:22.254Z,100074.69
2023-04-22T23:02:49.087Z,100074.59
2023-04-22T23:05:15.630Z,100086.97
2023-04-22T23:07:42.107Z,100081.72
2023-04-22T23:10:09.214Z,100085.31
2023-04-22T23:12:35.723Z,100078.47
2023-04-22T23:15:02.179Z,100072.31
2023-04-22T23:17:28.781Z,100071.63
2023-04-22T23:19:55.586Z,100070.56
2023-04-22T23:22:23.086Z,100073.84
2023-04-22T23:24:49.758Z,100063.56
2023-04-22T23:27:17.463Z,100069.47
2023-04-22T23:29:44.328Z,100073.78
2023-04-22T23:32:14.882Z,100066.13
2023-04-22T23:34:45.225Z,100061.72
2023-04-22T23:37:14.789Z,100058.31
2023-04-22T23:39:42.504Z,100064.41
2023-04-22T23:42:09.091Z,100059.28
2023-04-22T23:44:35.818Z,100053.31
2023-04-22T23:47:03.070Z,100054.13
2023-04-22T23:49:29.744Z,100046.16
2023-04-22T23:51:56.410Z,100039.06
2023-04-22T23:54:23.053Z,100040.75
2023-04-22T23:56:49.946Z,100050.34
2023-04-22T23:59:16.645Z,100042.59
